createdAt,value
2019-02-18T00:00:55.447Z,75.07
2019-02-18T00:03:24.907Z,75.56
2019-02-18T00:05:54.462Z,76.03
2019-02-18T00:08:25.508Z,75.44
2019-02-18T00:10:55.059Z,75.65
2019-02-18T00:13:24.633Z,75.48
2019-02-18T00:15:54.166Z,76.40
2019-02-18T00:18:23.640Z,75.48
2019-02-18T00:20:53.169Z,76.32
2019-02-18T00:23:22.620Z,76.25
2019-02-18T00:25:52.105Z,76.67
2019-02-18T00:28:21.592Z,76.62
2019-02-18T00:30:51.065Z,77.37
2019-02-18T00:33:20.620Z,77.82
2019-02-18T00:35:50.127Z,78.92
2019-02-18T00:38:19.617Z,78.33
2019-02-18T00:40:49.095Z,78.16
2019-02-18T00:43:18.658Z,78.19
2019-02-18T00:45:48.140Z,78.56
2019-02-18T00:48:17.766Z,78.86
2019-02-18T00:50:47.312Z,79.19
2019-02-18T00:53:16.863Z,79.88
2019-02-18T00:55:46.346Z,80.69
2019-02-18T00:58:15.858Z,81.50
2019-02-18T01:00:45.443Z,81.75
2019-02-18T01:03:14.996Z,82.73
2019-02-18T01:05:44.553Z,82.88
2019-02-18T01:08:14.040Z,83.86
2019-02-18T01:10:43.528Z,84.36
2019-02-18T01:13:13.029Z,85.63
2019-02-18T01:15:42.511Z,86.03
2019-02-18T01:18:11.989Z,87.19
2019-02-18T01:20:41.499Z,87.66
2019-02-18T01:23:10.997Z,88.59
2019-02-18T01:25:40.468Z,88.64
2019-02-18T01:28:09.978Z,88.92
2019-02-18T01:30:39.461Z,88.90
2019-02-18T01:33:09.015Z,88.09
2019-02-18T01:35:38.510Z,87.74
2019-02-18T01:38:08.131Z,87.83
2019-02-18T01:40:37.612Z,86.76
2019-02-18T01:43:07.154Z,87.31
2019-02-18T01:45:36.803Z,86.53
2019-02-18T01:48:06.353Z,86.42
2019-02-18T01:50:35.858Z,86.56
2019-02-18T01:53:05.418Z,87.27
2019-02-18T01:55:34.925Z,87.38
2019-02-18T01:58:04.408Z,87.73
2019-02-18T02:00:33.891Z,86.94
2019-02-18T02:03:03.358Z,86.15
2019-02-18T02:05:32.835Z,86.46
2019-02-18T02:08:02.312Z,86.37
2019-02-18T02:10:31.841Z,87.03
2019-02-18T02:13:27.594Z,86.36
2019-02-18T02:15:58.082Z,86.59
2019-02-18T02:18:27.543Z,86.16
2019-02-18T02:20:57.105Z,86.09
2019-02-18T02:23:26.587Z,86.49
2019-02-18T02:25:56.098Z,86.27
2019-02-18T02:28:25.695Z,86.56
2019-02-18T02:30:55.216Z,86.87
2019-02-18T02:33:24.680Z,87.35
2019-02-18T02:35:54.157Z,87.53
2019-02-18T02:38:23.634Z,87.30
2019-02-18T02:40:53.190Z,87.92
2019-02-18T02:43:22.669Z,88.41
2019-02-18T02:45:52.199Z,89.28
2019-02-18T02:48:21.726Z,90.45
2019-02-18T02:50:51.273Z,91.42
2019-02-18T02:53:20.762Z,92.44
2019-02-18T02:55:50.313Z,92.69
2019-02-18T02:58:19.890Z,92.44
2019-02-18T03:00:49.366Z,92.95
2019-02-18T03:03:18.853Z,93.00
2019-02-18T03:05:48.434Z,93.72
2019-02-18T03:08:20.621Z,93.27
2019-02-18T03:10:49.212Z,92.49
2019-02-18T03:13:18.791Z,91.60
2019-02-18T03:15:48.366Z,91.07
2019-02-18T03:18:17.841Z,90.17
2019-02-18T03:20:47.380Z,90.01
2019-02-18T03:23:16.895Z,89.83
2019-02-18T03:25:48.399Z,89.44
2019-02-18T03:28:43.146Z,89.07
2019-02-18T03:31:17.308Z,90.22
2019-02-18T03:33:54.840Z,90.53
2019-02-18T03:36:24.295Z,91.08
2019-02-18T03:38:53.759Z,90.70
2019-02-18T03:41:23.242Z,91.00
2019-02-18T03:43:52.741Z,90.44
2019-02-18T03:46:22.220Z,89.55
2019-02-18T03:48:51.729Z,90.84
2019-02-18T03:51:21.245Z,91.53
2019-02-18T03:53:50.722Z,92.08
2019-02-18T03:56:20.282Z,92.41
2019-02-18T03:58:49.755Z,92.55
2019-02-18T04:01:19.323Z,92.44
2019-02-18T04:03:48.897Z,92.62
2019-02-18T04:06:18.396Z,92.89
2019-02-18T04:08:47.879Z,92.76
2019-02-18T04:11:17.379Z,93.16
2019-02-18T04:13:46.915Z,93.13
2019-02-18T04:16:16.392Z,93.41
2019-02-18T04:18:45.876Z,92.46
2019-02-18T04:21:15.346Z,92.03
2019-02-18T04:23:44.843Z,90.98
2019-02-18T04:26:14.451Z,91.35
2019-02-18T04:28:43.947Z,91.29
2019-02-18T04:31:14.931Z,91.46
2019-02-18T04:33:47.161Z,91.02
2019-02-18T04:36:16.651Z,90.81
2019-02-18T04:38:53.887Z,90.02
2019-02-18T04:41:17.366Z,89.69
2019-02-18T04:43:46.842Z,88.53
2019-02-18T04:46:16.325Z,87.09
2019-02-18T04:48:45.797Z,86.50
2019-02-18T04:51:15.289Z,86.12
2019-02-18T04:53:44.771Z,84.99
2019-02-18T04:56:14.255Z,84.04
2019-02-18T04:58:43.809Z,83.94
2019-02-18T05:01:13.293Z,84.23
2019-02-18T05:03:42.782Z,84.97
2019-02-18T05:06:12.267Z,85.22
2019-02-18T05:08:41.753Z,86.14
2019-02-18T05:11:11.478Z,87.35
2019-02-18T05:13:41.036Z,88.42
2019-02-18T05:16:10.575Z,89.02
2019-02-18T05:18:40.113Z,89.02
2019-02-18T05:21:09.581Z,89.47
2019-02-18T05:23:39.077Z,90.06
2019-02-18T05:26:08.571Z,90.53
2019-02-18T05:28:38.043Z,90.49
2019-02-18T05:31:07.516Z,91.66
2019-02-18T05:33:37.020Z,90.80
2019-02-18T05:36:06.486Z,90.98
2019-02-18T05:38:35.991Z,90.10
2019-02-18T05:41:05.633Z,90.35
2019-02-18T05:43:35.106Z,89.64
2019-02-18T05:46:04.597Z,89.08
2019-02-18T05:48:34.324Z,90.01
2019-02-18T05:51:03.851Z,90.49
2019-02-18T05:53:33.448Z,91.54
2019-02-18T05:56:02.929Z,93.04
2019-02-18T05:58:32.440Z,93.77
2019-02-18T06:01:01.910Z,93.98
2019-02-18T06:03:31.409Z,95.43
2019-02-18T06:06:00.892Z,93.97
2019-02-18T06:08:30.367Z,93.94
2019-02-18T06:10:59.855Z,94.09
2019-02-18T06:13:29.341Z,92.69
2019-02-18T06:15:58.911Z,91.80
2019-02-18T06:18:28.406Z,90.40
2019-02-18T06:20:57.941Z,89.69
2019-02-18T06:23:27.431Z,90.08
2019-02-18T06:25:56.909Z,89.72
2019-02-18T06:28:26.503Z,90.17
2019-02-18T06:30:56.002Z,90.06
2019-02-18T06:33:25.466Z,89.80
2019-02-18T06:35:54.966Z,89.83
2019-02-18T06:38:24.450Z,90.61
2019-02-18T06:40:53.939Z,90.07
2019-02-18T06:43:23.422Z,90.02
2019-02-18T06:45:54.559Z,90.37
2019-02-18T06:48:25.666Z,90.71
2019-02-18T06:50:55.194Z,90.90
2019-02-18T06:53:24.730Z,90.59
2019-02-18T06:55:54.212Z,90.43
2019-02-18T06:58:30.920Z,89.56
2019-02-18T07:01:18.055Z,89.50
2019-02-18T07:03:47.329Z,88.74
2019-02-18T07:06:30.672Z,89.28
2019-02-18T07:09:07.986Z,89.18
2019-02-18T07:11:39.121Z,88.67
2019-02-18T07:14:08.695Z,88.84
2019-02-18T07:16:38.181Z,88.10
2019-02-18T07:19:07.671Z,87.93
2019-02-18T07:21:37.155Z,87.46
2019-02-18T07:24:06.650Z,87.09
2019-02-18T07:26:36.132Z,87.12
2019-02-18T07:29:05.617Z,87.53
2019-02-18T07:31:35.098Z,86.55
2019-02-18T07:34:04.578Z,85.48
2019-02-18T07:36:35.040Z,84.88
2019-02-18T07:39:06.162Z,84.58
2019-02-18T07:41:35.654Z,84.42
2019-02-18T07:44:05.130Z,84.51
2019-02-18T07:46:34.679Z,84.63
2019-02-18T07:49:04.166Z,84.00
2019-02-18T07:51:33.641Z,84.55
2019-02-18T07:54:03.120Z,83.82
2019-02-18T07:56:32.617Z,83.21
2019-02-18T07:59:02.125Z,83.68
2019-02-18T08:01:31.614Z,82.89
2019-02-18T08:04:01.175Z,82.31
2019-02-18T08:06:30.713Z,80.91
2019-02-18T08:09:00.209Z,81.15
2019-02-18T08:11:29.680Z,80.42
2019-02-18T08:13:59.250Z,80.36
2019-02-18T08:16:28.724Z,79.35
2019-02-18T08:18:58.214Z,79.30
2019-02-18T08:21:27.708Z,78.17
2019-02-18T08:23:59.966Z,79.32
2019-02-18T08:26:28.674Z,79.43
2019-02-18T08:28:58.239Z,78.85
2019-02-18T08:31:27.749Z,77.44
2019-02-18T08:33:57.197Z,77.10
2019-02-18T08:36:26.710Z,76.61
2019-02-18T08:38:56.281Z,75.09
2019-02-18T08:41:25.820Z,74.95
2019-02-18T08:43:55.320Z,75.86
2019-02-18T08:46:24.859Z,73.45
2019-02-18T08:48:54.378Z,72.44
2019-02-18T08:51:23.883Z,71.34
2019-02-18T08:53:53.444Z,71.10
2019-02-18T08:56:22.900Z,70.08
2019-02-18T08:58:52.426Z,70.20
2019-02-18T09:01:21.957Z,69.21
2019-02-18T09:03:51.515Z,68.04
2019-02-18T09:06:21.015Z,67.47
2019-02-18T09:08:50.518Z,66.50
2019-02-18T09:11:20.091Z,64.49
2019-02-18T09:13:49.570Z,62.51
2019-02-18T09:16:19.052Z,57.20
2019-02-18T09:18:48.560Z,55.67
2019-02-18T09:21:18.061Z,55.15
2019-02-18T09:23:49.271Z,52.08
2019-02-18T09:26:18.797Z,49.74
2019-02-18T09:28:48.283Z,48.52
2019-02-18T09:31:19.528Z,48.36
2019-02-18T09:33:48.998Z,48.06
2019-02-18T09:36:18.573Z,45.05
2019-02-18T09:38:48.065Z,44.80
2019-02-18T09:41:17.547Z,46.68
2019-02-18T09:43:47.059Z,44.56
2019-02-18T09:46:16.647Z,44.86
2019-02-18T09:48:46.147Z,44.46
2019-02-18T09:51:15.722Z,43.58
2019-02-18T09:53:45.222Z,43.49
2019-02-18T09:56:14.701Z,43.35
2019-02-18T09:58:44.262Z,45.01
2019-02-18T10:01:13.751Z,41.41
2019-02-18T10:03:43.263Z,43.25
2019-02-18T10:06:12.778Z,41.92
2019-02-18T10:08:42.291Z,39.72
2019-02-18T10:11:11.778Z,41.01
2019-02-18T10:13:41.355Z,42.80
2019-02-18T10:16:10.874Z,41.38
2019-02-18T10:18:40.451Z,42.62
2019-02-18T10:21:10.448Z,42.53
2019-02-18T10:23:39.992Z,40.95
2019-02-18T10:26:09.487Z,41.12
2019-02-18T10:28:38.980Z,40.16
2019-02-18T10:31:08.465Z,41.56
2019-02-18T10:33:37.968Z,42.16
2019-02-18T10:36:07.446Z,39.00
2019-02-18T10:38:36.939Z,40.04
2019-02-18T10:41:07.336Z,40.77
2019-02-18T10:43:36.937Z,40.15
2019-02-18T10:46:06.421Z,39.99
2019-02-18T10:48:35.915Z,39.79
2019-02-18T10:51:05.540Z,40.53
2019-02-18T10:53:35.052Z,40.86
2019-02-18T10:56:04.685Z,39.10
2019-02-18T10:58:34.203Z,40.51
2019-02-18T11:01:04.626Z,40.68
2019-02-18T11:03:34.101Z,41.31
2019-02-18T11:06:03.598Z,41.41
2019-02-18T11:08:33.143Z,42.30
2019-02-18T11:11:02.630Z,41.69
2019-02-18T11:13:32.128Z,41.80
2019-02-18T11:16:01.647Z,42.91
2019-02-18T11:18:31.508Z,41.78
2019-02-18T11:21:01.009Z,43.39
2019-02-18T11:23:30.806Z,41.91
2019-02-18T11:26:00.299Z,42.75
2019-02-18T11:28:29.781Z,43.27
2019-02-18T11:30:59.258Z,42.50
2019-02-18T11:33:28.747Z,42.89
2019-02-18T11:35:58.228Z,42.83
2019-02-18T11:38:27.715Z,42.74
2019-02-18T11:40:57.188Z,42.82
2019-02-18T11:43:26.713Z,42.68
2019-02-18T11:45:56.192Z,41.78
2019-02-18T11:48:25.711Z,42.93
2019-02-18T11:50:55.483Z,41.40
2019-02-18T11:53:24.982Z,42.91
2019-02-18T11:55:54.470Z,41.31
2019-02-18T11:58:24.034Z,41.14
2019-02-18T12:00:53.562Z,40.81
2019-02-18T12:03:23.029Z,41.51
2019-02-18T12:05:52.508Z,42.00
2019-02-18T12:08:21.997Z,42.51
2019-02-18T12:10:51.596Z,42.31
2019-02-18T12:13:21.068Z,42.39
2019-02-18T12:15:50.580Z,42.38
2019-02-18T12:18:20.151Z,41.99
2019-02-18T12:20:49.912Z,41.80
2019-02-18T12:23:19.380Z,42.26
2019-02-18T12:25:48.954Z,42.02
2019-02-18T12:28:18.436Z,41.53
2019-02-18T12:30:47.925Z,42.36
2019-02-18T12:33:17.439Z,42.38
2019-02-18T12:35:47.229Z,40.86
2019-02-18T12:38:17.433Z,40.11
2019-02-18T12:40:47.234Z,40.88
2019-02-18T12:43:16.719Z,41.01
2019-02-18T12:45:46.243Z,40.63
2019-02-18T12:48:15.875Z,40.00
2019-02-18T12:50:45.444Z,41.19
2019-02-18T12:53:14.933Z,40.19
2019-02-18T12:55:44.488Z,40.42
2019-02-18T12:58:13.997Z,40.02
2019-02-18T13:00:43.480Z,40.19
2019-02-18T13:03:13.037Z,40.19
2019-02-18T13:05:42.798Z,38.77
2019-02-18T13:08:12.284Z,39.73
2019-02-18T13:10:42.774Z,38.55
2019-02-18T13:13:12.274Z,39.09
2019-02-18T13:15:41.859Z,38.36
2019-02-18T13:18:11.352Z,39.53
2019-02-18T13:20:40.822Z,38.15
2019-02-18T13:23:10.602Z,38.60
2019-02-18T13:25:47.333Z,38.06
2019-02-18T13:28:11.305Z,37.49
2019-02-18T13:30:40.787Z,38.05
2019-02-18T13:33:10.272Z,38.24
2019-02-18T13:35:39.845Z,38.26
2019-02-18T13:38:09.788Z,37.91
2019-02-18T13:40:39.300Z,38.30
2019-02-18T13:43:08.851Z,38.28
2019-02-18T13:45:38.363Z,38.77
2019-02-18T13:48:07.901Z,38.17
2019-02-18T13:50:37.406Z,38.84
2019-02-18T13:53:07.268Z,37.38
2019-02-18T13:55:36.782Z,37.77
2019-02-18T13:58:06.704Z,38.34
2019-02-18T14:00:36.304Z,38.14
2019-02-18T14:03:05.934Z,38.01
2019-02-18T14:05:35.415Z,37.53
2019-02-18T14:08:05.251Z,38.17
2019-02-18T14:10:34.830Z,37.69
2019-02-18T14:13:04.427Z,37.94
2019-02-18T14:15:34.054Z,37.74
2019-02-18T14:18:03.628Z,37.81
2019-02-18T14:20:33.274Z,37.86
2019-02-18T14:23:02.780Z,38.16
2019-02-18T14:25:32.278Z,38.07
2019-02-18T14:28:01.761Z,37.21
2019-02-18T14:30:31.464Z,37.26
2019-02-18T14:33:00.953Z,37.34
2019-02-18T14:35:30.518Z,35.32
2019-02-18T14:38:00.041Z,35.83
2019-02-18T14:40:29.779Z,35.81
2019-02-18T14:42:59.334Z,36.53
2019-02-18T14:45:28.890Z,37.25
2019-02-18T14:47:58.476Z,37.57
2019-02-18T14:50:28.323Z,37.50
2019-02-18T14:52:58.476Z,38.12
2019-02-18T14:55:27.953Z,38.07
2019-02-18T14:57:57.568Z,37.74
2019-02-18T15:00:27.163Z,38.05
2019-02-18T15:02:58.392Z,38.15
2019-02-18T15:05:28.315Z,38.60
2019-02-18T15:07:57.832Z,37.82
2019-02-18T15:10:27.392Z,34.31
2019-02-18T15:12:56.984Z,33.22
2019-02-18T15:15:26.465Z,33.46
2019-02-18T15:17:55.990Z,33.88
2019-02-18T15:20:25.555Z,34.76
2019-02-18T15:22:55.077Z,35.34
2019-02-18T15:25:24.627Z,36.46
2019-02-18T15:27:54.124Z,36.49
2019-02-18T15:30:23.864Z,37.36
2019-02-18T15:32:53.331Z,37.55
2019-02-18T15:35:22.953Z,37.56
2019-02-18T15:37:52.528Z,38.12
2019-02-18T15:40:22.016Z,38.41
2019-02-18T15:42:51.656Z,39.55
2019-02-18T15:45:21.223Z,39.64
2019-02-18T15:47:50.855Z,39.76
2019-02-18T15:50:20.407Z,40.07
2019-02-18T15:52:49.905Z,40.50
2019-02-18T15:55:19.525Z,40.71
2019-02-18T15:57:49.073Z,41.52
2019-02-18T16:00:22.980Z,41.55
2019-02-18T16:02:52.695Z,42.19
2019-02-18T16:05:22.337Z,42.96
2019-02-18T16:07:51.896Z,42.68
2019-02-18T16:10:21.449Z,42.94
2019-02-18T16:12:51.295Z,44.13
2019-02-18T16:15:20.917Z,43.94
2019-02-18T16:17:50.438Z,44.16
2019-02-18T16:20:19.956Z,44.14
2019-02-18T16:22:49.470Z,44.52
2019-02-18T16:25:24.690Z,44.78
2019-02-18T16:27:54.194Z,45.45
2019-02-18T16:30:24.194Z,46.31
2019-02-18T16:32:53.688Z,46.41
2019-02-18T16:35:23.160Z,47.04
2019-02-18T16:37:52.656Z,46.77
2019-02-18T16:40:22.527Z,47.62
2019-02-18T16:42:59.019Z,48.06
2019-02-18T16:45:23.344Z,47.24
2019-02-18T16:47:52.928Z,48.33
2019-02-18T16:50:22.443Z,48.28
2019-02-18T16:52:51.972Z,49.13
2019-02-18T16:55:21.508Z,49.80
2019-02-18T16:57:51.493Z,49.63
2019-02-18T17:00:32.499Z,49.96
2019-02-18T17:03:02.016Z,50.38
2019-02-18T17:05:31.537Z,51.28
2019-02-18T17:08:01.024Z,50.32
2019-02-18T17:10:30.914Z,50.89
2019-02-18T17:13:07.892Z,51.62
2019-02-18T17:15:31.645Z,51.86
2019-02-18T17:18:01.156Z,52.30
2019-02-18T17:20:30.649Z,52.52
2019-02-18T17:23:00.152Z,53.13
2019-02-18T17:25:30.099Z,53.12
2019-02-18T17:27:59.677Z,54.09
2019-02-18T17:30:29.267Z,53.92
2019-02-18T17:32:58.839Z,54.12
2019-02-18T17:35:28.336Z,53.96
2019-02-18T17:37:57.840Z,53.74
2019-02-18T17:40:27.602Z,54.89
2019-02-18T17:42:57.100Z,54.77
2019-02-18T17:45:26.663Z,54.50
2019-02-18T17:47:56.197Z,55.05
2019-02-18T17:50:25.731Z,54.87
2019-02-18T17:52:55.248Z,55.41
2019-02-18T17:55:24.999Z,56.02
2019-02-18T17:57:54.498Z,56.46
2019-02-18T18:00:31.311Z,56.86
2019-02-18T18:03:00.791Z,56.50
2019-02-18T18:05:30.445Z,56.41
2019-02-18T18:08:00.404Z,56.97
2019-02-18T18:10:29.934Z,56.54
2019-02-18T18:12:59.415Z,57.03
2019-02-18T18:15:29.014Z,58.05
2019-02-18T18:17:58.520Z,58.90
2019-02-18T18:20:28.054Z,59.67
2019-02-18T18:22:57.846Z,60.40
2019-02-18T18:25:27.316Z,60.53
2019-02-18T18:27:56.829Z,61.24
2019-02-18T18:30:26.356Z,60.36
2019-02-18T18:32:55.860Z,60.95
2019-02-18T18:35:25.344Z,60.76
2019-02-18T18:37:55.167Z,61.14
2019-02-18T18:40:24.643Z,61.16
2019-02-18T18:42:54.324Z,61.60
2019-02-18T18:45:23.907Z,61.71
2019-02-18T18:47:53.539Z,62.52
2019-02-18T18:50:23.988Z,62.83
2019-02-18T18:52:53.553Z,63.22
2019-02-18T18:55:23.136Z,63.79
2019-02-18T18:57:52.642Z,63.65
2019-02-18T19:00:26.612Z,64.14
2019-02-18T19:02:56.184Z,64.13
2019-02-18T19:05:25.766Z,64.81
2019-02-18T19:07:55.260Z,65.58
2019-02-18T19:10:24.792Z,66.06
2019-02-18T19:12:54.337Z,67.06
2019-02-18T19:15:23.910Z,68.08
2019-02-18T19:17:53.817Z,69.62
2019-02-18T19:20:23.380Z,69.98
2019-02-18T19:22:52.958Z,70.64
2019-02-18T19:25:22.589Z,70.64
2019-02-18T19:27:52.065Z,68.87
2019-02-18T19:30:34.967Z,68.51
2019-02-18T19:33:04.620Z,68.32
2019-02-18T19:35:34.177Z,68.28
2019-02-18T19:38:03.780Z,68.16
2019-02-18T19:40:33.295Z,67.80
2019-02-18T19:43:02.867Z,67.64
2019-02-18T19:45:32.364Z,66.96
2019-02-18T19:48:01.853Z,67.44
2019-02-18T19:50:31.419Z,66.42
2019-02-18T19:53:00.960Z,66.94
2019-02-18T19:55:30.863Z,66.72
2019-02-18T19:58:00.823Z,66.56
2019-02-18T20:00:30.385Z,66.76
2019-02-18T20:03:00.032Z,66.70
2019-02-18T20:05:29.533Z,66.82
2019-02-18T20:07:59.144Z,66.93
2019-02-18T20:10:28.721Z,66.61
2019-02-18T20:12:58.331Z,67.30
2019-02-18T20:15:27.844Z,68.36
2019-02-18T20:17:57.414Z,67.89
2019-02-18T20:20:28.639Z,68.26
2019-02-18T20:22:58.188Z,68.32
2019-02-18T20:25:28.154Z,67.62
2019-02-18T20:27:57.666Z,67.86
2019-02-18T20:30:27.211Z,68.19
2019-02-18T20:32:56.965Z,68.50
2019-02-18T20:35:26.515Z,68.87
2019-02-18T20:37:56.124Z,69.03
2019-02-18T20:40:25.826Z,69.49
2019-02-18T20:42:55.390Z,71.36
2019-02-18T20:45:25.100Z,71.75
2019-02-18T20:47:54.696Z,71.88
2019-02-18T20:50:24.241Z,72.69
2019-02-18T20:52:53.740Z,72.68
2019-02-18T20:55:23.272Z,73.45
2019-02-18T20:57:52.794Z,74.33
2019-02-18T21:00:22.265Z,74.08
2019-02-18T21:02:51.846Z,73.72
2019-02-18T21:05:21.343Z,73.52
2019-02-18T21:07:50.811Z,74.17
2019-02-18T21:10:21.856Z,75.06
2019-02-18T21:12:51.348Z,76.02
2019-02-18T21:15:20.918Z,77.31
2019-02-18T21:17:50.447Z,77.96
2019-02-18T21:20:20.012Z,77.74
2019-02-18T21:22:49.968Z,78.38
2019-02-18T21:25:19.529Z,78.45
2019-02-18T21:27:49.043Z,77.37
2019-02-18T21:30:19.252Z,77.33
2019-02-18T21:32:48.827Z,76.71
2019-02-18T21:35:18.487Z,77.90
2019-02-18T21:37:48.001Z,78.83
2019-02-18T21:40:17.549Z,79.63
2019-02-18T21:42:47.062Z,80.44
2019-02-18T21:45:17.106Z,80.44
2019-02-18T21:47:46.729Z,80.90
2019-02-18T21:50:16.290Z,80.89
2019-02-18T21:52:45.786Z,80.99
2019-02-18T21:55:15.394Z,80.30
2019-02-18T21:57:44.882Z,80.02
2019-02-18T22:00:33.780Z,79.17
2019-02-18T22:03:03.297Z,79.76
2019-02-18T22:05:32.782Z,80.51
2019-02-18T22:08:02.319Z,81.07
2019-02-18T22:10:31.783Z,81.35
2019-02-18T22:13:01.358Z,81.42
2019-02-18T22:15:30.840Z,81.28
2019-02-18T22:18:00.702Z,81.67
2019-02-18T22:20:30.198Z,80.75
2019-02-18T22:22:59.705Z,81.41
2019-02-18T22:25:29.204Z,81.90
2019-02-18T22:27:58.682Z,81.75
2019-02-18T22:30:28.248Z,82.53
2019-02-18T22:32:58.184Z,81.84
2019-02-18T22:35:27.651Z,81.76
2019-02-18T22:37:57.128Z,82.57
2019-02-18T22:40:26.607Z,82.42
2019-02-18T22:42:56.109Z,82.70
2019-02-18T22:45:25.584Z,83.28
2019-02-18T22:47:55.224Z,83.48
2019-02-18T22:50:24.797Z,83.07
2019-02-18T22:52:54.279Z,82.05
2019-02-18T22:55:23.766Z,81.59
2019-02-18T22:57:53.268Z,81.13
2019-02-18T23:00:43.330Z,80.90
2019-02-18T23:03:13.303Z,81.20
2019-02-18T23:05:42.754Z,82.03
2019-02-18T23:08:12.244Z,82.75
2019-02-18T23:10:41.852Z,82.96
2019-02-18T23:13:11.434Z,83.68
2019-02-18T23:15:41.245Z,84.21
2019-02-18T23:18:10.731Z,85.04
2019-02-18T23:20:40.361Z,85.68
2019-02-18T23:23:09.835Z,86.69
2019-02-18T23:25:39.306Z,87.84
2019-02-18T23:28:08.865Z,88.36
2019-02-18T23:30:38.765Z,88.90
2019-02-18T23:33:08.257Z,89.53
2019-02-18T23:35:39.003Z,91.08
2019-02-18T23:38:08.553Z,91.36
2019-02-18T23:40:38.031Z,91.90
2019-02-18T23:43:07.505Z,92.61
2019-02-18T23:45:37.001Z,91.87
2019-02-18T23:48:06.597Z,92.66
2019-02-18T23:50:36.177Z,92.59
2019-02-18T23:53:05.673Z,92.60
2019-02-18T23:55:35.171Z,92.79
2019-02-18T23:58:04.659Z,92.48
